Nearby METAR Reports

 

KAVP - Avoca/Wilkes B., Pennsylvania, USA
Distance from station: N 16mi, 25km
Updated: 01/19/2022 2:54pm
Clear
Clear
 Wind from SW
Wind: SW 13 mph , 20 km/h, Gust: 24 mph , 39 km/h
Temperature: 46°F , 8°C
Wind Chill: 40°F , 4°C
Dew Point: 27°F , -3°C
Humidity: 46%
Barometer: 29.85 inHg , 1010.8 hPa
Clouds: Clear
Visibility: 10 miles , 16 km
2022/01/19 19:54 KAVP 191954Z 23011G21KT 10SM CLR 08/M03 A2985 RMK AO2 SLP113 T00781033
KMPO - Mt. Pocono, Pennsylvania, USA
Distance from station: E 20mi, 33km
Updated: 01/19/2022 2:53pm
Clear
Clear
 Wind from SW
Wind: SW 20 mph , 31 km/h, Gust: 30 mph , 48 km/h
Temperature: 37°F , 3°C
Wind Chill: 27°F , -3°C
Dew Point: 25°F , -4°C
Humidity: 60%
Barometer: 29.85 inHg , 1010.8 hPa
Clouds: Clear
Visibility: 10 miles , 16 km
2022/01/19 19:53 KMPO 191953Z AUTO 22017G26KT 10SM CLR 03/M04 A2985 RMK AO2 PK WND 23026/1953 SLP130 T00331044
 
KABE - Allentown, Pennsylvania, USA
Distance from station: SSE 36mi, 58km
Updated: 01/19/2022 2:51pm
Overcast
Overcast
 Wind from SW
Wind: SW 8 mph , 13 km/h
Temperature: 45°F , 7°C
Wind Chill: 41°F , 5°C
Dew Point: 25°F , -4°C
Humidity: 46%
Barometer: 29.95 inHg , 1014.2 hPa
Clouds: Overcast
Visibility: 10 miles , 16 km
Cloud details: Mostly cloudy 4800 ft
Overcast 7000 ft
2022/01/19 19:51 KABE 191951Z 23007KT 10SM BKN048 OVC070 07/M04 A2995 RMK AO2 SLP145 T00671039
KXLL - Allentown Queen, Pennsylvania, USA
Distance from station: SSE 41mi, 65km
Updated: 01/19/2022 2:55pm
Mostly cloudy
Mostly cloudy
 Wind from SW
Wind: SW 7 mph , 11 km/h
Temperature: 46°F , 8°C
Wind Chill: 42°F , 6°C
Dew Point: 28°F , -2°C
Humidity: 50%
Barometer: 29.95 inHg , 1014.2 hPa
Clouds: Mostly cloudy
Visibility: 10 miles , 16 km
Cloud details: Mostly cloudy 4800 ft
Mostly cloudy 7000 ft
2022/01/19 19:55 KXLL 191955Z AUTO 22006KT 10SM BKN048 BKN070 08/M02 A2995 RMK AO2